Terminal Aerodrome Forecast
Issued by NWS

Home | Current Version | Previous Version | Text Only | Print | Product List | Glossary On
Versions: 1 2 3 4 5 6 7 8 9 10 11 12 13 14 15 16 17 18 19 20 21 22 23 24
000
FTUS44 KOHX 292324
TAFCKV
TAF
KCKV 292324Z 3000/3024 10006KT P6SM OVC100
     FM300800 12005KT P6SM BKN040 OVC100
     FM301400 18010G18KT 6SM -SHRA BR VCTS SCT025CB BKN050=

USA.gov is the U.S. government's official web portal to all federal, state and local government web resources and services.